Dades meteomassalio
Diari Summary for Maig 11, 2017 Units:  Metric    English   Both
« Previous Day
Next Day »
Diari Semanal Mensual Anual Personalitzat
  Maxima: Minima: Mijana:
Temperatura: 24.3 °C 14.9 °C 19 °C
Rosada: 14.9 °C 7.4 °C 11.2 °C
Humitat: 91 % 35 % 64 %
Velocitat del vent: 42.6 km/h 0.0 km/h 9.6 km/h
Racha vent: 42.6 km/h - -
Vent:- - WSW
Pressio: 1003.3 hPa 997.9 hPa -
Pluja: 3.0 mm    
Historical Graphs
 
 
Tabular Data for Maig 11, 2017
Time Temperature Dew Point Pressure Wind Wind Speed Wind Gust Humidity Rainfall Rate (Hourly) solar Conditions
00:02 16.3 °C 13.8 °C 1000.9 hPa Calm     85 % 0.0 mm 0.0 W/m2 RA
00:07 16.2 °C 13.7 °C 1000.9 hPa Calm     85 % 0.0 mm 0.0 W/m2 CLR
00:12 16.2 °C 13.7 °C 1000.9 hPa ESE 6.4 km/h 6.4 km/h 85 % 0.0 mm 0.0 W/m2 CLR
00:17 16.2 °C 13.8 °C 1000.9 hPa ESE 8.0 km/h 8.0 km/h 86 % 0.0 mm 0.0 W/m2 CLR
00:22 16.1 °C 13.8 °C 1000.9 hPa ESE 5.6 km/h 5.6 km/h 86 % 0.0 mm 0.0 W/m2 CLR
00:27 16.1 °C 13.8 °C 1000.9 hPa East 3.7 km/h   86 % 0.0 mm 0.0 W/m2 CLR
00:32 16.1 °C 13.7 °C 1000.9 hPa ESE 11.1 km/h 11.1 km/h 86 % 0.0 mm 0.0 W/m2 CLR
00:37 16.1 °C 13.7 °C 1000.6 hPa Calm     86 % 0.0 mm 0.0 W/m2 CLR
00:42 16.0 °C 13.8 °C 1000.6 hPa Calm     87 % 0.0 mm 0.0 W/m2 CLR
00:47 16.0 °C 13.8 °C 1000.6 hPa Calm     87 % 0.0 mm 0.0 W/m2 CLR
00:52 15.9 °C 13.8 °C 1000.9 hPa Calm     87 % 0.0 mm 0.0 W/m2 CLR
00:57 15.9 °C 13.8 °C 1001.2 hPa Calm     87 % 0.0 mm 0.0 W/m2 CLR
01:02 16.1 °C 13.7 °C 1000.9 hPa SE 16.7 km/h 16.7 km/h 86 % 0.0 mm 0.0 W/m2 CLR
01:07 16.2 °C 13.7 °C 1000.9 hPa ESE 11.1 km/h 11.1 km/h 85 % 0.0 mm 0.0 W/m2 CLR
01:12 16.2 °C 13.5 °C 1000.9 hPa Calm     84 % 0.0 mm 0.0 W/m2 CLR
01:17 16.2 °C 13.5 °C 1000.9 hPa Calm     84 % 0.0 mm 0.0 W/m2 CLR
01:22 16.2 °C 13.5 °C 1000.9 hPa Calm     84 % 0.0 mm 0.0 W/m2 CLR
01:27 16.3 °C 13.6 °C 1000.9 hPa Calm     84 % 0.3 mm 0.0 W/m2 RA
01:32 16.2 °C 13.7 °C 1000.6 hPa Calm     85 % 0.3 mm 0.0 W/m2
01:37 16.1 °C 13.7 °C 1000.6 hPa Calm     86 % 0.3 mm 0.0 W/m2 CLR
01:42 16.0 °C 13.8 °C 1000.9 hPa Calm     87 % 0.3 mm 0.0 W/m2 CLR
01:48 15.9 °C 13.8 °C 1000.9 hPa SE 9.7 km/h 9.7 km/h 87 % 0.5 mm 0.0 W/m2 RA
01:53 15.9 °C 13.7 °C 1000.9 hPa SE 13.0 km/h 13.0 km/h 87 % 0.5 mm 0.0 W/m2 RA
01:58 15.8 °C 13.7 °C 1000.9 hPa SE 13.0 km/h 13.0 km/h 87 % 0.5 mm 0.0 W/m2 CLR
02:03 15.8 °C 13.8 °C 1000.9 hPa SSE 11.3 km/h 11.3 km/h 88 % 0.5 mm 0.0 W/m2 CLR
02:08 15.8 °C 13.8 °C 1001.2 hPa SSE 14.5 km/h 14.5 km/h 88 % 0.8 mm 0.0 W/m2 RA
02:13 15.6 °C 13.8 °C 1000.9 hPa SE 16.7 km/h 16.7 km/h 89 % 1.3 mm 0.0 W/m2 RA
02:18 15.6 °C 13.7 °C 1000.9 hPa SE 16.7 km/h 16.7 km/h 89 % 1.3 mm 0.0 W/m2 CLR
02:23 15.5 °C 13.7 °C 1000.9 hPa SE 16.7 km/h 16.7 km/h 89 % 1.5 mm 0.0 W/m2 RA
02:28 15.4 °C 13.8 °C 1000.9 hPa SE 12.9 km/h 12.9 km/h 90 % 1.5 mm 0.0 W/m2 RA
02:33 15.4 °C 13.8 °C 1000.9 hPa SSE 5.6 km/h   90 % 1.5 mm 0.0 W/m2
02:38 15.4 °C 13.8 °C 1000.9 hPa SE 9.7 km/h 9.7 km/h 90 % 1.5 mm 0.0 W/m2 CLR
02:43 15.3 °C 13.7 °C 1000.6 hPa SE 11.1 km/h 11.1 km/h 90 % 1.5 mm 0.0 W/m2 CLR
02:48 15.3 °C 13.8 °C 1000.6 hPa Calm     91 % 1.5 mm 0.0 W/m2 CLR
02:54 15.3 °C 13.9 °C 1000.6 hPa SSE 9.3 km/h 9.3 km/h 91 % 1.3 mm 0.0 W/m2 CLR
02:59 15.3 °C 13.7 °C 1000.6 hPa Calm     90 % 1.3 mm 0.0 W/m2 CLR
03:04 15.3 °C 13.7 °C 1000.2 hPa SE 14.8 km/h 14.8 km/h 90 % 1.3 mm 0.0 W/m2 CLR
03:09 15.3 °C 13.7 °C 999.9 hPa SSE 11.1 km/h 11.1 km/h 90 % 1.0 mm 0.0 W/m2 CLR
03:14 15.3 °C 13.7 °C 1000.2 hPa Calm     90 % 0.8 mm 0.0 W/m2 RA
03:20 15.3 °C 13.9 °C 999.9 hPa Calm     91 % 0.5 mm 0.0 W/m2
03:25 15.3 °C 13.8 °C 999.9 hPa Calm     91 % 0.5 mm 0.0 W/m2 CLR
03:30 15.3 °C 13.8 °C 999.9 hPa SSE 3.7 km/h 3.7 km/h 91 % 0.3 mm 0.0 W/m2 CLR
03:36 15.3 °C 13.8 °C 999.5 hPa Calm     91 % 0.3 mm 0.0 W/m2 CLR
03:41 15.3 °C 13.8 °C 999.9 hPa Calm     91 % 0.5 mm 0.0 W/m2 RA
03:46 15.2 °C 13.8 °C 999.5 hPa Calm     91 % 0.5 mm 0.0 W/m2 CLR
03:51 15.2 °C 13.8 °C 999.5 hPa Calm     91 % 0.5 mm 0.0 W/m2 RA
03:56 15.2 °C 13.8 °C 999.5 hPa Calm     91 % 0.5 mm 0.0 W/m2 CLR
04:01 15.2 °C 13.8 °C 999.2 hPa Calm     91 % 0.5 mm 0.0 W/m2 CLR
04:06 15.2 °C 13.8 °C 999.2 hPa Calm     91 % 0.5 mm 0.0 W/m2 CLR
04:11 15.2 °C 13.8 °C 999.2 hPa Calm     91 % 0.5 mm 0.0 W/m2 CLR
04:16 15.2 °C 13.8 °C 999.2 hPa Calm     91 % 0.5 mm 0.0 W/m2 CLR
04:21 15.2 °C 13.8 °C 999.2 hPa Calm     91 % 0.5 mm 0.0 W/m2 CLR
04:26 15.2 °C 13.7 °C 999.2 hPa Calm     91 % 0.5 mm 0.0 W/m2 CLR
04:31 15.2 °C 13.8 °C 999.2 hPa SE 6.4 km/h 6.4 km/h 91 % 0.5 mm 0.0 W/m2 CLR
04:36 15.2 °C 13.8 °C 998.9 hPa Calm     91 % 0.5 mm 0.0 W/m2 CLR
04:41 15.2 °C 13.8 °C 998.9 hPa Calm     91 % 0.3 mm 0.0 W/m2 CLR
04:46 15.2 °C 13.8 °C 998.9 hPa SSW 3.7 km/h 3.7 km/h 91 % 0.3 mm 0.0 W/m2 CLR
04:51 15.2 °C 13.7 °C 998.9 hPa Calm     91 % 0.0 mm 0.0 W/m2 CLR
04:56 15.2 °C 13.7 °C 998.9 hPa SSE 11.3 km/h 11.3 km/h 91 % 0.0 mm 0.0 W/m2 CLR
05:01 15.2 °C 13.6 °C 998.5 hPa SSE 14.8 km/h 14.8 km/h 90 % 0.0 mm 0.0 W/m2 CLR
05:06 15.2 °C 13.6 °C 998.9 hPa SE 7.4 km/h 7.4 km/h 90 % 0.0 mm 0.0 W/m2 CLR
05:11 15.2 °C 13.6 °C 998.5 hPa SSE 11.1 km/h 11.1 km/h 90 % 0.0 mm 0.0 W/m2 CLR
05:16 15.2 °C 13.6 °C 998.5 hPa SE 11.1 km/h 11.1 km/h 90 % 0.0 mm 0.0 W/m2 CLR
05:21 15.2 °C 13.6 °C 998.5 hPa Calm     90 % 0.0 mm 0.0 W/m2 CLR
05:26 15.2 °C 13.6 °C 998.5 hPa SSW 9.3 km/h 9.3 km/h 90 % 0.0 mm 0.0 W/m2 CLR
05:31 15.2 °C 13.6 °C 998.5 hPa South 1.9 km/h   90 % 0.0 mm 0.0 W/m2 CLR
05:36 15.2 °C 13.6 °C 998.5 hPa Calm     90 % 0.0 mm 0.0 W/m2 CLR
05:41 15.2 °C 13.6 °C 998.2 hPa SSE 11.3 km/h 11.3 km/h 90 % 0.0 mm 0.0 W/m2 CLR
05:46 15.2 °C 13.4 °C 998.2 hPa SSE 13.0 km/h 13.0 km/h 89 % 0.0 mm 0.0 W/m2 CLR
05:51 15.3 °C 13.5 °C 998.2 hPa SE 11.3 km/h 11.3 km/h 89 % 0.0 mm 0.0 W/m2 CLR
05:56 15.3 °C 13.6 °C 998.5 hPa South 11.1 km/h 11.1 km/h 89 % 0.0 mm 0.0 W/m2 CLR
06:01 15.3 °C 13.6 °C 998.5 hPa Calm     89 % 0.0 mm 0.0 W/m2 CLR
06:06 15.3 °C 13.5 °C 998.5 hPa Calm     89 % 0.0 mm 0.0 W/m2 CLR
06:11 15.2 °C 13.4 °C 998.5 hPa South 7.4 km/h 7.4 km/h 89 % 0.0 mm 0.0 W/m2 CLR
06:16 15.3 °C 13.5 °C 998.5 hPa SSE 13.0 km/h 13.0 km/h 89 % 0.0 mm 0.0 W/m2 CLR
06:21 15.3 °C 13.6 °C 998.5 hPa Calm     89 % 0.0 mm 0.0 W/m2 CLR
06:26 15.3 °C 13.6 °C 998.5 hPa South 3.2 km/h 3.2 km/h 89 % 0.0 mm 0.0 W/m2 CLR
06:31 15.3 °C 13.6 °C 998.9 hPa Calm     89 % 0.0 mm 0.0 W/m2 CLR
06:36 15.3 °C 13.5 °C 998.9 hPa Calm     89 % 0.0 mm 0.0 W/m2 OVC
06:41 15.2 °C 13.4 °C 998.9 hPa Calm     89 % 0.0 mm 0.0 W/m2 OVC
06:46 15.2 °C 13.4 °C 998.9 hPa Calm     89 % 0.0 mm 0.0 W/m2 OVC
06:51 15.1 °C 13.5 °C 998.9 hPa Calm     90 % 0.0 mm 0.0 W/m2 OVC
06:56 15.0 °C 13.4 °C 999.2 hPa Calm     90 % 0.0 mm 0.0 W/m2 OVC
07:01 14.9 °C 13.3 °C 999.2 hPa Calm     90 % 0.3 mm 0.0 W/m2 RA
07:06 14.9 °C 13.3 °C 999.2 hPa Calm     90 % 0.5 mm 0.0 W/m2 RA
07:11 14.9 °C 13.3 °C 999.2 hPa Calm     90 % 0.5 mm 0.0 W/m2 CLR
07:16 14.9 °C 13.3 °C 999.2 hPa Calm     90 % 0.5 mm 11.0 W/m2 BKN
07:21 14.9 °C 13.3 °C 999.2 hPa Calm     90 % 0.5 mm 19.0 W/m2 RA
07:26 14.9 °C 13.3 °C 998.2 hPa SSE 18.5 km/h 18.5 km/h 90 % 0.5 mm 19.0 W/m2 BKN
07:31 15.3 °C 13.5 °C 998.2 hPa SSE 18.5 km/h 18.5 km/h 89 % 0.5 mm 19.0 W/m2 BKN
07:36 15.3 °C 13.3 °C 998.5 hPa SE 7.4 km/h 7.4 km/h 88 % 0.5 mm 18.0 W/m2 BKN
07:41 15.1 °C 13.3 °C 998.2 hPa SE 5.6 km/h 5.6 km/h 89 % 0.5 mm 23.0 W/m2 BKN
07:46 14.9 °C 13.2 °C 998.2 hPa SSE 11.1 km/h 11.1 km/h 89 % 0.5 mm 21.0 W/m2 BKN
07:51 14.9 °C 13.3 °C 998.2 hPa SSE 13.0 km/h 13.0 km/h 90 % 0.5 mm 49.0 W/m2 BKN
07:56 14.9 °C 13.2 °C 997.9 hPa South 13.0 km/h 13.0 km/h 89 % 0.5 mm 102.0 W/m2 SCT
08:01 15.1 °C 13.3 °C 997.9 hPa South 9.3 km/h   89 % 0.5 mm 107.0 W/m2 FEW
08:06 15.2 °C 13.4 °C 998.2 hPa Calm     89 % 0.3 mm 130.0 W/m2 CLR
08:12 15.3 °C 13.5 °C 998.2 hPa Calm     89 % 0.3 mm 109.0 W/m2 CLR
08:17 15.3 °C 13.6 °C 998.5 hPa Calm     89 % 0.3 mm 118.0 W/m2 CLR
08:22 15.4 °C 13.6 °C 998.5 hPa Calm     89 % 0.0 mm 111.0 W/m2 CLR
08:27 15.5 °C 13.5 °C 998.5 hPa WSW 8.0 km/h 8.0 km/h 88 % 0.0 mm 93.0 W/m2 CLR
08:32 15.6 °C 13.4 °C 998.9 hPa Calm     87 % 0.0 mm 56.0 W/m2 FEW
08:37 15.7 °C 13.6 °C 998.5 hPa SW 3.7 km/h   87 % 0.0 mm 70.0 W/m2 FEW
08:42 15.8 °C 13.4 °C 998.9 hPa Calm     86 % 0.0 mm 88.0 W/m2 FEW
08:47 15.8 °C 13.5 °C 998.9 hPa Calm     86 % 0.0 mm 72.0 W/m2 FEW
08:52 15.9 °C 13.6 °C 998.9 hPa Calm     86 % 0.0 mm 70.0 W/m2 FEW
08:57 15.9 °C 13.6 °C 998.9 hPa Calm     86 % 0.0 mm 76.0 W/m2 FEW
09:02 16.0 °C 13.7 °C 998.9 hPa Calm     86 % 0.0 mm 74.0 W/m2 FEW
09:07 16.0 °C 13.7 °C 998.9 hPa Calm     86 % 0.0 mm 88.0 W/m2 FEW
09:12 15.9 °C 13.4 °C 998.9 hPa Calm     85 % 0.0 mm 83.0 W/m2 FEW
09:17 16.0 °C 13.3 °C 998.9 hPa Calm     84 % 0.0 mm 100.0 W/m2 CLR
09:22 16.1 °C 13.2 °C 998.9 hPa Calm     83 % 0.0 mm 120.0 W/m2 CLR
09:27 16.2 °C 13.3 °C 998.9 hPa Calm     83 % 0.0 mm 139.0 W/m2 CLR
09:32 16.6 °C 14.4 °C 998.9 hPa Calm     87 % 0.0 mm 439.0 W/m2 CLR
09:37 16.9 °C 14.9 °C 998.9 hPa Calm     88 % 0.0 mm 394.0 W/m2 CLR
09:42 17.3 °C 14.9 °C 998.9 hPa Calm     86 % 0.0 mm 88.0 W/m2 FEW
09:47 17.6 °C 14.4 °C 998.9 hPa Calm     82 % 0.0 mm 476.0 W/m2 FEW
09:52 17.8 °C 14.3 °C 998.9 hPa Calm     80 % 0.0 mm 508.0 W/m2 CLR
09:57 18.1 °C 14.2 °C 998.9 hPa Calm     78 % 0.0 mm 533.0 W/m2 CLR
10:02 18.4 °C 14.3 °C 998.9 hPa Calm     77 % 0.0 mm 536.0 W/m2 CLR
10:07 18.6 °C 13.7 °C 998.9 hPa Calm     73 % 0.0 mm 550.0 W/m2 CLR
10:12 18.8 °C 13.0 °C 998.9 hPa Calm     69 % 0.0 mm 566.0 W/m2 CLR
10:17 19.0 °C 12.3 °C 998.9 hPa Calm     65 % 0.0 mm 584.0 W/m2 CLR
10:22 19.3 °C 12.8 °C 999.2 hPa WSW 9.3 km/h 9.3 km/h 66 % 0.0 mm 642.0 W/m2 CLR
10:27 19.5 °C 11.5 °C 999.2 hPa West 11.1 km/h 11.1 km/h 60 % 0.0 mm 671.0 W/m2 CLR
10:32 19.6 °C 11.6 °C 999.2 hPa WSW 9.7 km/h 9.7 km/h 60 % 0.0 mm 281.0 W/m2 CLR
10:37 19.8 °C 11.3 °C 999.2 hPa SSW 5.6 km/h 5.6 km/h 58 % 0.0 mm 703.0 W/m2 CLR
10:42 20.3 °C 12.5 °C 998.9 hPa Calm     61 % 0.0 mm 765.0 W/m2 CLR
10:47 20.1 °C 11.0 °C 999.2 hPa West 7.4 km/h 7.4 km/h 56 % 0.0 mm 118.0 W/m2 CLR
10:52 19.9 °C 11.7 °C 999.2 hPa West 9.3 km/h 9.3 km/h 59 % 0.0 mm 262.0 W/m2 CLR
10:57 20.1 °C 11.6 °C 999.2 hPa WSW 9.7 km/h 9.7 km/h 58 % 0.0 mm 202.0 W/m2 CLR
11:02 20.1 °C 11.3 °C 999.2 hPa SW 9.3 km/h 9.3 km/h 57 % 0.0 mm 248.0 W/m2 CLR
11:07 20.4 °C 11.4 °C 998.9 hPa WSW 20.4 km/h 20.4 km/h 56 % 0.0 mm 782.0 W/m2 CLR
11:12 20.6 °C 11.5 °C 998.9 hPa WSW 7.4 km/h 7.4 km/h 56 % 0.0 mm 352.0 W/m2 CLR
11:17 20.6 °C 11.7 °C 998.9 hPa South 8.0 km/h 8.0 km/h 57 % 0.0 mm 362.0 W/m2 CLR
11:22 20.4 °C 10.8 °C 998.9 hPa SW 13.0 km/h 13.0 km/h 54 % 0.0 mm 306.0 W/m2 CLR
11:27 20.4 °C 10.5 °C 998.9 hPa South 8.0 km/h 8.0 km/h 53 % 0.0 mm 246.0 W/m2 CLR
11:32 20.4 °C 11.3 °C 998.9 hPa SW 4.8 km/h 4.8 km/h 56 % 0.0 mm 216.0 W/m2 CLR
11:38 20.3 °C 10.7 °C 998.9 hPa SW 11.1 km/h 11.1 km/h 54 % 0.0 mm 220.0 W/m2 CLR
11:43 20.3 °C 10.7 °C 998.9 hPa SW 6.4 km/h 6.4 km/h 54 % 0.0 mm 253.0 W/m2 CLR
11:48 20.4 °C 9.9 °C 998.9 hPa West 20.4 km/h 20.4 km/h 51 % 0.0 mm 318.0 W/m2 CLR
11:53 20.5 °C 9.7 °C 998.9 hPa West 14.8 km/h 14.8 km/h 50 % 0.0 mm 330.0 W/m2 CLR
11:58 20.6 °C 10.1 °C 998.9 hPa West 14.5 km/h 14.5 km/h 51 % 0.0 mm 320.0 W/m2 CLR
12:03 21.1 °C 10.6 °C 998.9 hPa SW 11.1 km/h 11.1 km/h 51 % 0.0 mm 320.0 W/m2 CLR
12:08 21.4 °C 9.9 °C 999.2 hPa West 13.0 km/h 13.0 km/h 48 % 0.0 mm 378.0 W/m2 CLR
12:13 21.1 °C 9.3 °C 999.2 hPa WNW 13.0 km/h 13.0 km/h 47 % 0.0 mm 292.0 W/m2 CLR
12:18 21.1 °C 9.3 °C 999.2 hPa West 20.4 km/h 20.4 km/h 47 % 0.0 mm 223.0 W/m2 CLR
12:23 20.9 °C 9.2 °C 999.2 hPa West 27.8 km/h 27.8 km/h 47 % 0.0 mm 221.0 W/m2 CLR
12:28 20.6 °C 8.9 °C 999.5 hPa NW 35.2 km/h 35.2 km/h 47 % 0.0 mm 258.0 W/m2 CLR
12:33 20.0 °C 10.9 °C 999.9 hPa NW 42.6 km/h 42.6 km/h 56 % 0.0 mm 339.0 W/m2 CLR
12:38 19.3 °C 10.8 °C 999.5 hPa WNW 31.5 km/h 31.5 km/h 58 % 0.0 mm 1076.0 W/m2 CLR
12:43 19.1 °C 11.4 °C 999.5 hPa WNW 29.6 km/h 29.6 km/h 61 % 0.0 mm 1014.0 W/m2 CLR
12:48 19.3 °C 12.1 °C 999.5 hPa NW 20.4 km/h 20.4 km/h 63 % 0.0 mm 1041.0 W/m2 CLR
12:53 19.6 °C 11.3 °C 999.5 hPa NNW 18.5 km/h 18.5 km/h 59 % 0.0 mm 371.0 W/m2 CLR
12:58 19.6 °C 11.1 °C 999.5 hPa West 9.3 km/h 9.3 km/h 58 % 0.0 mm 369.0 W/m2 CLR
13:03 19.8 °C 10.8 °C 999.5 hPa WSW 11.1 km/h 11.1 km/h 56 % 0.0 mm 661.0 W/m2 CLR
13:08 20.1 °C 10.7 °C 999.5 hPa WSW 7.4 km/h 7.4 km/h 55 % 0.0 mm 475.0 W/m2 CLR
13:13 20.3 °C 10.7 °C 999.5 hPa SW 14.8 km/h 14.8 km/h 54 % 0.0 mm 302.0 W/m2 CLR
13:18 20.7 °C 10.2 °C 999.5 hPa SW 24.1 km/h 24.1 km/h 51 % 0.0 mm 396.0 W/m2 CLR
13:23 20.9 °C 10.7 °C 999.5 hPa WSW 6.4 km/h 6.4 km/h 52 % 0.0 mm 566.0 W/m2 CLR
13:28 21.2 °C 10.7 °C 999.5 hPa West 13.0 km/h 13.0 km/h 51 % 0.0 mm 1048.0 W/m2 CLR
13:33 21.6 °C 10.4 °C 999.5 hPa NNW 11.1 km/h 11.1 km/h 49 % 0.0 mm 1185.0 W/m2 CLR
13:38 21.8 °C 9.7 °C 999.2 hPa WSW 9.3 km/h 9.3 km/h 46 % 0.0 mm 1179.0 W/m2 CLR
13:43 21.9 °C 10.7 °C 999.2 hPa Calm     49 % 0.0 mm 1185.0 W/m2 CLR
13:48 22.2 °C 9.4 °C 999.2 hPa NNW 18.5 km/h 18.5 km/h 44 % 0.0 mm 415.0 W/m2 CLR
13:53 21.9 °C 12.5 °C 999.5 hPa North 16.7 km/h 16.7 km/h 55 % 0.0 mm 415.0 W/m2 CLR
13:58 21.9 °C 11.3 °C 999.2 hPa Calm     51 % 0.0 mm 1202.0 W/m2 CLR
14:03 22.1 °C 10.2 °C 999.2 hPa Calm     47 % 0.0 mm 496.0 W/m2 CLR
14:08 22.4 °C 11.4 °C 999.2 hPa Calm     50 % 0.0 mm 1306.0 W/m2 CLR
14:13 22.8 °C 12.2 °C 999.2 hPa West 11.3 km/h 11.3 km/h 51 % 0.0 mm 346.0 W/m2 CLR
14:18 22.5 °C 10.9 °C 999.2 hPa WNW 22.2 km/h 22.2 km/h 48 % 0.0 mm 422.0 W/m2 CLR
14:23 21.9 °C 10.7 °C 999.5 hPa NW 29.6 km/h 29.6 km/h 49 % 0.0 mm 283.0 W/m2 CLR
14:28 21.5 °C 10.9 °C 999.5 hPa NW 18.5 km/h 18.5 km/h 51 % 0.0 mm 415.0 W/m2 CLR
14:33 21.4 °C 11.2 °C 999.5 hPa NW 18.5 km/h 18.5 km/h 52 % 0.0 mm 278.0 W/m2 CLR
14:38 21.4 °C 10.3 °C 999.5 hPa NNW 29.6 km/h 29.6 km/h 49 % 0.0 mm 322.0 W/m2 CLR
14:43 21.6 °C 10.1 °C 999.9 hPa North 25.9 km/h 25.9 km/h 48 % 0.0 mm 322.0 W/m2 CLR
14:48 21.7 °C 9.8 °C 999.9 hPa North 16.7 km/h 16.7 km/h 47 % 0.0 mm 443.0 W/m2 CLR
14:54 22.0 °C 10.2 °C 999.5 hPa NW 18.5 km/h 18.5 km/h 47 % 0.0 mm 302.0 W/m2 CLR
14:59 21.9 °C 9.7 °C 999.5 hPa WNW 25.9 km/h 25.9 km/h 46 % 0.0 mm 260.0 W/m2 CLR
15:04 21.7 °C 9.8 °C 999.5 hPa NW 22.2 km/h 22.2 km/h 47 % 0.0 mm 250.0 W/m2 CLR
15:09 21.7 °C 10.2 °C 999.5 hPa WNW 18.5 km/h 18.5 km/h 48 % 0.0 mm 313.0 W/m2 CLR
15:14 22.1 °C 10.6 °C 999.5 hPa NW 18.5 km/h 18.5 km/h 48 % 0.0 mm 497.0 W/m2 CLR
15:19 22.2 °C 10.0 °C 999.5 hPa West 24.1 km/h 24.1 km/h 46 % 0.0 mm 197.0 W/m2 CLR
15:24 21.8 °C 8.7 °C 999.5 hPa WNW 9.3 km/h 9.3 km/h 43 % 0.0 mm 190.0 W/m2 CLR
15:29 21.8 °C 9.3 °C 999.9 hPa WSW 18.5 km/h 18.5 km/h 45 % 0.0 mm 285.0 W/m2 CLR
15:34 21.9 °C 9.4 °C 999.9 hPa West 22.2 km/h 22.2 km/h 45 % 0.0 mm 265.0 W/m2 CLR
15:39 21.9 °C 8.8 °C 999.9 hPa West 14.8 km/h 14.8 km/h 43 % 0.0 mm 290.0 W/m2 CLR
15:44 21.8 °C 8.7 °C 999.5 hPa WSW 7.4 km/h 7.4 km/h 43 % 0.0 mm 250.0 W/m2 CLR
15:49 21.9 °C 9.4 °C 999.5 hPa WNW 7.4 km/h 7.4 km/h 45 % 0.0 mm 262.0 W/m2 CLR
15:54 22.3 °C 9.5 °C 999.5 hPa NW 9.3 km/h 9.3 km/h 44 % 0.0 mm 348.0 W/m2 CLR
15:59 22.5 °C 8.6 °C 999.5 hPa West 7.4 km/h 7.4 km/h 41 % 0.0 mm 322.0 W/m2 CLR
16:04 22.6 °C 9.3 °C 999.5 hPa NW 16.7 km/h 16.7 km/h 43 % 0.0 mm 271.0 W/m2 CLR
16:09 22.3 °C 8.8 °C 999.5 hPa NW 18.5 km/h 18.5 km/h 42 % 0.0 mm 334.0 W/m2 CLR
16:14 22.5 °C 8.9 °C 999.5 hPa NE 8.0 km/h 8.0 km/h 42 % 0.0 mm 388.0 W/m2 CLR
16:19 22.9 °C 9.3 °C 999.5 hPa NW 18.5 km/h 18.5 km/h 42 % 0.0 mm 438.0 W/m2 CLR
16:24 23.3 °C 9.7 °C 999.2 hPa NNW 5.6 km/h 5.6 km/h 42 % 0.0 mm 965.0 W/m2 CLR
16:29 23.5 °C 10.2 °C 999.2 hPa NW 18.5 km/h 18.5 km/h 43 % 0.0 mm 330.0 W/m2 CLR
16:34 23.3 °C 9.3 °C 999.5 hPa NW 25.9 km/h 25.9 km/h 41 % 0.0 mm 1014.0 W/m2 CLR
16:39 23.4 °C 9.7 °C 999.2 hPa WNW 18.5 km/h 18.5 km/h 42 % 0.0 mm 1062.0 W/m2 CLR
16:44 23.4 °C 8.7 °C 999.2 hPa WNW 18.5 km/h 18.5 km/h 39 % 0.0 mm 320.0 W/m2 CLR
16:49 23.4 °C 9.4 °C 999.2 hPa WNW 8.0 km/h 8.0 km/h 41 % 0.0 mm 962.0 W/m2 CLR
16:54 23.9 °C 9.1 °C 999.2 hPa NW 20.4 km/h 20.4 km/h 39 % 0.0 mm 874.0 W/m2 CLR
16:59 23.9 °C 8.7 °C 999.2 hPa West 7.4 km/h 7.4 km/h 38 % 0.0 mm 951.0 W/m2 CLR
17:04 23.9 °C 9.8 °C 999.2 hPa NNW 18.5 km/h 18.5 km/h 41 % 0.0 mm 531.0 W/m2 CLR
17:09 23.9 °C 9.9 °C 999.2 hPa NW 18.5 km/h 18.5 km/h 41 % 0.0 mm 872.0 W/m2 CLR
17:14 24.0 °C 9.2 °C 999.2 hPa NW 20.9 km/h 20.9 km/h 39 % 0.0 mm 828.0 W/m2 CLR
17:19 23.4 °C 9.0 °C 999.5 hPa NW 14.8 km/h 14.8 km/h 40 % 0.0 mm 225.0 W/m2 CLR
17:24 23.1 °C 9.1 °C 999.5 hPa NNW 12.9 km/h 12.9 km/h 41 % 0.0 mm 155.0 W/m2 CLR
17:29 22.8 °C 8.9 °C 999.5 hPa West 5.6 km/h 5.6 km/h 41 % 0.0 mm 185.0 W/m2 CLR
17:34 22.8 °C 9.2 °C 999.5 hPa NW 5.6 km/h 5.6 km/h 42 % 0.0 mm 148.0 W/m2 CLR
17:39 22.8 °C 9.2 °C 999.5 hPa NW 8.0 km/h 8.0 km/h 42 % 0.0 mm 146.0 W/m2 CLR
17:44 22.6 °C 8.3 °C 999.5 hPa NNW 18.5 km/h 18.5 km/h 40 % 0.0 mm 113.0 W/m2 CLR
17:49 22.4 °C 8.9 °C 999.5 hPa NNW 17.7 km/h 17.7 km/h 42 % 0.0 mm 90.0 W/m2 CLR
17:54 22.2 °C 9.1 °C 999.5 hPa NW 18.5 km/h 18.5 km/h 43 % 0.0 mm 83.0 W/m2 CLR
17:59 21.8 °C 9.0 °C 999.5 hPa North 20.4 km/h 20.4 km/h 44 % 0.0 mm 142.0 W/m2 CLR
18:04 21.5 °C 9.4 °C 999.9 hPa NNW 20.4 km/h 20.4 km/h 46 % 0.0 mm 230.0 W/m2 CLR
18:05 21.4 °C 9.3 °C 999.9 hPa North 20.4 km/h 20.4 km/h 46 % 0.0 mm 230.0 W/m2 CLR
18:10 21.5 °C 9.4 °C 999.5 hPa NNW 14.8 km/h 14.8 km/h 46 % 0.0 mm 341.0 W/m2 CLR
18:15 22.1 °C 10.2 °C 999.5 hPa NNW 3.2 km/h 3.2 km/h 47 % 0.0 mm 605.0 W/m2 CLR
18:20 22.6 °C 9.4 °C 999.5 hPa Calm     43 % 0.0 mm 149.0 W/m2 CLR
18:25 22.8 °C 9.6 °C 999.5 hPa Calm     43 % 0.0 mm 151.0 W/m2 CLR
18:30 22.8 °C 9.6 °C 999.5 hPa Calm     43 % 0.0 mm 186.0 W/m2 CLR
18:35 22.9 °C 9.3 °C 999.5 hPa Calm   0.6 km/h 42 % 0.0 mm 504.0 W/m2 CLR
18:40 23.1 °C 8.8 °C 999.5 hPa Calm     40 % 0.0 mm 193.0 W/m2 CLR
18:45 23.2 °C 8.8 °C 999.5 hPa NNW 8.0 km/h 8.0 km/h 40 % 0.0 mm 392.0 W/m2 CLR
18:55 23.9 °C 9.1 °C 999.2 hPa Calm     39 % 0.0 mm 450.0 W/m2 CLR
19:00 24.3 °C 9.1 °C 999.5 hPa WSW 11.3 km/h 11.3 km/h 38 % 0.0 mm 443.0 W/m2 CLR
19:05 24.2 °C 7.8 °C 999.5 hPa West 13.0 km/h 13.0 km/h 35 % 0.0 mm 301.0 W/m2 CLR
19:10 24.1 °C 7.7 °C 999.5 hPa SW 7.4 km/h 7.4 km/h 35 % 0.0 mm 343.0 W/m2 CLR
19:15 24.2 °C 8.2 °C 999.5 hPa West 30.6 km/h 30.6 km/h 36 % 0.0 mm 188.0 W/m2 CLR
19:20 23.9 °C 7.6 °C 999.5 hPa West 11.1 km/h 11.1 km/h 35 % 0.0 mm 294.0 W/m2 CLR
19:25 23.9 °C 7.9 °C 999.5 hPa WNW 22.5 km/h 22.5 km/h 36 % 0.0 mm 269.0 W/m2 CLR
19:30 23.7 °C 7.7 °C 999.2 hPa West 24.1 km/h 24.1 km/h 36 % 0.0 mm 70.0 W/m2 CLR
19:35 23.4 °C 8.3 °C 999.5 hPa WNW 24.1 km/h 24.1 km/h 38 % 0.0 mm 272.0 W/m2 CLR
19:40 23.6 °C 8.4 °C 999.5 hPa WNW 22.2 km/h 22.2 km/h 38 % 0.0 mm 229.0 W/m2 CLR
19:45 23.4 °C 8.3 °C 999.5 hPa NW 11.1 km/h 11.1 km/h 38 % 0.0 mm 141.0 W/m2 CLR
19:50 23.2 °C 8.1 °C 999.5 hPa WNW 16.7 km/h 16.7 km/h 38 % 0.0 mm 86.0 W/m2 CLR
19:55 22.9 °C 7.4 °C 999.5 hPa West 20.4 km/h 20.4 km/h 37 % 0.0 mm 63.0 W/m2 CLR
20:00 22.7 °C 8.0 °C 999.9 hPa WNW 18.5 km/h 18.5 km/h 39 % 0.0 mm 56.0 W/m2 FEW
20:05 22.5 °C 8.2 °C 999.9 hPa WNW 11.1 km/h 11.1 km/h 40 % 0.0 mm 47.0 W/m2 SCT
20:11 22.3 °C 8.4 °C 999.9 hPa WNW 6.4 km/h 6.4 km/h 41 % 0.0 mm 42.0 W/m2 BKN
20:16 22.1 °C 8.6 °C 999.9 hPa NW 3.7 km/h   42 % 0.0 mm 40.0 W/m2 SCT
20:21 22.0 °C 8.5 °C 999.9 hPa Calm     42 % 0.0 mm 28.0 W/m2 BKN
20:26 21.9 °C 8.7 °C 1000.2 hPa Calm     43 % 0.0 mm 21.0 W/m2 BKN
20:31 21.8 °C 9.0 °C 1000.2 hPa Calm     44 % 0.0 mm 14.0 W/m2 BKN
20:36 21.7 °C 8.2 °C 1000.2 hPa Calm     42 % 0.0 mm 11.0 W/m2 BKN
20:41 21.6 °C 8.8 °C 1000.6 hPa Calm     44 % 0.0 mm 11.0 W/m2 BKN
20:46 21.5 °C 9.1 °C 1000.6 hPa Calm     45 % 0.0 mm 9.0 W/m2 BKN
20:51 21.3 °C 9.2 °C 1000.6 hPa Calm     46 % 0.0 mm 7.0 W/m2 BKN
20:56 21.2 °C 9.7 °C 1000.6 hPa Calm     48 % 0.0 mm 5.0 W/m2 OVC
20:57 21.1 °C 9.3 °C 1000.6 hPa Calm     47 % 0.0 mm 5.0 W/m2 OVC
21:02 20.9 °C 9.5 °C 1000.9 hPa Calm     48 % 0.0 mm 0.0 W/m2 OVC
21:07 20.7 °C 9.3 °C 1000.9 hPa Calm     48 % 0.0 mm 0.0 W/m2 OVC
21:12 20.6 °C 9.8 °C 1000.9 hPa Calm     50 % 0.0 mm 0.0 W/m2 OVC
21:17 20.4 °C 9.6 °C 1000.9 hPa Calm     50 % 0.0 mm 0.0 W/m2 CLR
21:22 20.3 °C 9.3 °C 1001.2 hPa Calm     49 % 0.0 mm 0.0 W/m2 CLR
21:27 20.3 °C 8.9 °C 1001.2 hPa Calm     48 % 0.0 mm 0.0 W/m2 CLR
21:32 20.3 °C 8.9 °C 1001.2 hPa Calm     48 % 0.0 mm 0.0 W/m2 CLR
21:33 20.3 °C 9.8 °C 1001.2 hPa Calm     51 % 0.0 mm 0.0 W/m2 CLR
21:38 20.2 °C 8.6 °C 1001.6 hPa WNW 14.8 km/h 14.8 km/h 47 % 0.0 mm 0.0 W/m2 CLR
21:43 20.4 °C 8.4 °C 1001.6 hPa NW 13.0 km/h 13.0 km/h 46 % 0.0 mm 0.0 W/m2 CLR
21:48 20.6 °C 8.6 °C 1001.9 hPa WNW 11.1 km/h 11.1 km/h 46 % 0.0 mm 0.0 W/m2 CLR
21:53 20.5 °C 8.8 °C 1001.9 hPa WNW 7.4 km/h 7.4 km/h 47 % 0.0 mm 0.0 W/m2 CLR
21:58 20.3 °C 8.9 °C 1001.9 hPa NW 5.6 km/h 5.6 km/h 48 % 0.0 mm 0.0 W/m2 CLR
22:03 20.2 °C 8.6 °C 1001.9 hPa WNW 5.6 km/h 5.8 km/h 47 % 0.0 mm 0.0 W/m2 CLR
22:05 20.2 °C 8.6 °C 1001.9 hPa WNW 7.4 km/h 7.4 km/h 47 % 0.0 mm 0.0 W/m2 CLR
22:10 20.1 °C 8.8 °C 1002.3 hPa WNW 5.6 km/h 5.6 km/h 48 % 0.0 mm 0.0 W/m2 CLR
22:15 20.0 °C 8.3 °C 1002.3 hPa NW 9.3 km/h 9.3 km/h 47 % 0.0 mm 0.0 W/m2 CLR
22:20 20.0 °C 8.3 °C 1002.3 hPa WNW 13.0 km/h 13.0 km/h 47 % 0.0 mm 0.0 W/m2 CLR
22:25 19.9 °C 8.8 °C 1002.3 hPa WNW 11.1 km/h 11.1 km/h 49 % 0.0 mm 0.0 W/m2 CLR
22:30 19.9 °C 7.9 °C 1002.3 hPa WNW 27.8 km/h 27.8 km/h 46 % 0.0 mm 0.0 W/m2 CLR
22:35 20.1 °C 8.1 °C 1002.6 hPa WNW 30.6 km/h 30.6 km/h 46 % 0.0 mm 0.0 W/m2 CLR
22:40 20.2 °C 8.2 °C 1002.6 hPa WNW 24.1 km/h 24.1 km/h 46 % 0.0 mm 0.0 W/m2 CLR
22:45 20.1 °C 8.1 °C 1002.6 hPa WNW 25.9 km/h 25.9 km/h 46 % 0.0 mm 0.0 W/m2 CLR
22:50 20.1 °C 7.7 °C 1002.6 hPa West 27.8 km/h 27.8 km/h 45 % 0.0 mm 0.0 W/m2 CLR
22:55 19.9 °C 7.9 °C 1002.6 hPa NW 31.5 km/h 31.5 km/h 46 % 0.0 mm 0.0 W/m2 CLR
23:00 19.9 °C 7.6 °C 1002.9 hPa WNW 27.8 km/h 27.8 km/h 45 % 0.0 mm 0.0 W/m2 CLR
23:05 19.8 °C 7.8 °C 1002.9 hPa West 22.2 km/h 22.2 km/h 46 % 0.0 mm 0.0 W/m2 CLR
23:10 19.8 °C 7.8 °C 1002.9 hPa West 24.1 km/h 24.1 km/h 46 % 0.0 mm 0.0 W/m2 CLR
23:15 19.8 °C 7.8 °C 1002.9 hPa WNW 27.8 km/h 27.8 km/h 46 % 0.0 mm 0.0 W/m2 CLR
23:20 19.7 °C 7.8 °C 1002.9 hPa West 24.1 km/h 24.1 km/h 46 % 0.0 mm 0.0 W/m2 CLR
23:25 19.7 °C 7.7 °C 1002.9 hPa West 18.5 km/h 18.5 km/h 46 % 0.0 mm 0.0 W/m2 CLR
23:30 19.5 °C 7.9 °C 1002.9 hPa West 20.4 km/h 20.4 km/h 47 % 0.0 mm 0.0 W/m2 CLR
23:35 19.4 °C 7.8 °C 1002.9 hPa West 18.5 km/h 18.5 km/h 47 % 0.0 mm 0.0 W/m2 CLR
23:40 19.4 °C 7.8 °C 1002.9 hPa West 22.5 km/h 22.5 km/h 47 % 0.0 mm 0.0 W/m2 CLR
23:45 19.3 °C 7.4 °C 1003.3 hPa West 25.9 km/h 25.9 km/h 46 % 0.0 mm 0.0 W/m2 CLR
23:50 19.3 °C 7.7 °C 1002.9 hPa West 29.6 km/h 29.6 km/h 47 % 0.0 mm 0.0 W/m2 CLR
23:55 19.2 °C 7.6 °C 1003.3 hPa West 31.5 km/h 31.5 km/h 47 % 0.0 mm 0.0 W/m2 CLR
Lo Temps de Massalio
Compliments of Weather Underground - 1.25 mb